Time;durP1;ratioP1;P1;durP2;ratioP2;P2;SDS_P1;SDS_P2;PMS_P1;PMS_P2;Temp;Humidity;BMP_temperature;BMP_pressure;BME280_temperature;BME280_humidity;BME280_pressure;Samples;Min_cycle;Max_cycle;Signal;HPM_P1;HPM_P2
2021/05/01 00:02:53;;;;;;;8.27;2.97;;;6.00;99.90;;;;;;13050466;22;20003;-78
2021/05/01 00:07:54;;;;;;;5.78;2.60;;;6.00;99.90;;;;;;13075890;22;20502;-78
2021/05/01 00:12:54;;;;;;;8.57;2.70;;;6.00;99.90;;;;;;13049659;22;20006;-78
2021/05/01 00:17:55;;;;;;;5.20;2.50;;;5.90;99.90;;;;;;13049890;22;20014;-78
2021/05/01 00:22:56;;;;;;;4.22;1.85;;;6.00;99.90;;;;;;13075746;22;20025;-77
2021/05/01 00:27:56;;;;;;;5.93;2.83;;;6.00;99.90;;;;;;13051128;22;19999;-77
2021/05/01 00:32:58;;;;;;;6.53;2.58;;;6.10;99.90;;;;;;13075650;22;20431;-77
2021/05/01 00:37:58;;;;;;;6.05;2.63;;;6.20;99.90;;;;;;13101524;22;20003;-77
2021/05/01 00:43:00;;;;;;;5.22;2.03;;;6.30;99.90;;;;;;13075709;22;20026;-77
2021/05/01 00:48:00;;;;;;;5.53;2.30;;;6.30;99.90;;;;;;13074555;22;20026;-77
2021/05/01 00:53:01;;;;;;;4.72;1.83;;;6.40;99.90;;;;;;13075634;22;20007;-77
2021/05/01 00:58:02;;;;;;;6.22;2.13;;;6.40;99.90;;;;;;13101747;22;20046;-77
2021/05/01 01:08:07;;;;;;;6.72;2.50;;;6.20;99.90;;;;;;12895645;22;20035;-47
2021/05/01 01:13:08;;;;;;;3.17;1.70;;;6.20;99.90;;;;;;12901299;22;20012;-47
2021/05/01 01:18:09;;;;;;;5.07;1.70;;;6.10;99.90;;;;;;12900446;22;20023;-47
2021/05/01 01:23:10;;;;;;;5.78;2.70;;;6.00;99.90;;;;;;12901988;22;20004;-47
2021/05/01 01:28:11;;;;;;;5.20;1.92;;;5.90;99.90;;;;;;12900419;22;20012;-47
2021/05/01 01:33:12;;;;;;;3.75;1.70;;;5.80;99.90;;;;;;12899512;22;20320;-47
2021/05/01 01:38:13;;;;;;;4.53;2.10;;;5.80;99.90;;;;;;12902551;22;20026;-47
2021/05/01 01:43:13;;;;;;;6.35;2.50;;;5.60;99.90;;;;;;12900542;22;20004;-47
2021/05/01 01:48:14;;;;;;;5.80;2.35;;;5.50;99.90;;;;;;12906578;22;20373;-47
2021/05/01 01:53:15;;;;;;;5.88;2.40;;;5.50;99.90;;;;;;12963928;22;20462;-47
2021/05/01 01:58:16;;;;;;;9.15;2.95;;;5.50;99.90;;;;;;12960875;22;20110;-47
2021/05/01 02:03:17;;;;;;;6.05;1.75;;;5.40;99.90;;;;;;12959408;22;20085;-47
2021/05/01 02:08:18;;;;;;;6.65;2.08;;;5.30;99.90;;;;;;12967199;22;20042;-47
2021/05/01 02:13:19;;;;;;;6.28;2.95;;;5.40;99.90;;;;;;12965651;22;20440;-47
2021/05/01 02:18:19;;;;;;;10.57;2.55;;;5.40;99.90;;;;;;12962948;22;20312;-47
2021/05/01 02:23:20;;;;;;;5.38;2.33;;;5.40;99.90;;;;;;12963145;22;20004;-47
2021/05/01 02:28:21;;;;;;;5.40;2.65;;;5.40;99.90;;;;;;12960289;22;20065;-47
2021/05/01 02:33:22;;;;;;;7.00;2.42;;;5.30;99.90;;;;;;12960357;22;20008;-47
2021/05/01 02:38:23;;;;;;;7.55;2.75;;;5.30;99.90;;;;;;12960703;22;20464;-47
2021/05/01 02:43:23;;;;;;;8.75;2.80;;;5.30;99.90;;;;;;12963711;22;20008;-47
2021/05/01 02:48:24;;;;;;;5.10;2.53;;;5.30;99.90;;;;;;12961935;22;20471;-47
2021/05/01 02:53:25;;;;;;;6.22;2.42;;;5.20;99.90;;;;;;12963432;22;20091;-47
2021/05/01 02:58:26;;;;;;;8.13;2.83;;;5.10;99.90;;;;;;12960543;22;20015;-47
2021/05/01 03:03:27;;;;;;;5.18;2.45;;;5.10;99.90;;;;;;12959451;22;21476;-47
2021/05/01 03:08:27;;;;;;;7.13;3.35;;;5.00;99.90;;;;;;12961668;22;20557;-47
2021/05/01 03:13:28;;;;;;;4.93;2.53;;;5.00;99.90;;;;;;12960852;22;20312;-47
2021/05/01 03:18:29;;;;;;;5.88;2.10;;;4.90;99.90;;;;;;12958640;22;20011;-48
2021/05/01 03:23:29;;;;;;;5.53;2.45;;;4.90;99.90;;;;;;12962351;22;20063;-47
2021/05/01 03:28:30;;;;;;;6.55;2.33;;;4.80;99.90;;;;;;12962958;22;20111;-47
2021/05/01 03:33:30;;;;;;;5.57;2.42;;;4.80;99.90;;;;;;12958631;22;20008;-47
2021/05/01 03:38:32;;;;;;;6.15;3.30;;;4.80;99.90;;;;;;12958404;22;20011;-47
2021/05/01 03:43:33;;;;;;;7.05;2.47;;;4.70;99.90;;;;;;12958986;22;20092;-47
2021/05/01 03:48:33;;;;;;;5.22;2.03;;;4.60;99.90;;;;;;12959305;22;20032;-47
2021/05/01 03:53:34;;;;;;;5.90;2.78;;;4.50;99.90;;;;;;12960465;22;20062;-47
2021/05/01 03:58:35;;;;;;;6.70;2.78;;;4.50;99.90;;;;;;12960105;22;20119;-47
2021/05/01 04:03:36;;;;;;;5.18;2.47;;;4.50;99.90;;;;;;12956876;22;20098;-47
2021/05/01 04:08:38;;;;;;;3.90;2.05;;;4.40;99.90;;;;;;12957262;22;20043;-47
2021/05/01 04:13:48;;;;;;;8.52;3.10;;;4.40;99.90;;;;;;12959279;22;20449;-47
2021/05/01 04:18:49;;;;;;;6.25;2.50;;;4.40;99.90;;;;;;12955567;22;20751;-47
2021/05/01 04:23:49;;;;;;;6.45;2.53;;;4.40;99.90;;;;;;12959593;22;20111;-47
2021/05/01 04:28:52;;;;;;;18.48;3.30;;;4.40;99.90;;;;;;12959022;22;20192;-47
2021/05/01 04:33:53;;;;;;;5.93;2.45;;;4.40;99.90;;;;;;12957747;22;20094;-47
2021/05/01 04:38:53;;;;;;;7.95;3.78;;;4.40;99.90;;;;;;12960355;22;20098;-47
2021/05/01 04:43:54;;;;;;;6.25;2.42;;;4.40;99.90;;;;;;12962058;22;20031;-47
2021/05/01 04:48:55;;;;;;;8.25;2.85;;;4.40;99.90;;;;;;12959969;22;20420;-47
2021/05/01 04:53:56;;;;;;;5.20;3.22;;;4.40;99.90;;;;;;12962426;22;20011;-47
2021/05/01 04:58:56;;;;;;;14.65;4.13;;;4.40;99.90;;;;;;12960624;22;20015;-47
2021/05/01 05:03:57;;;;;;;7.40;2.97;;;4.40;99.90;;;;;;12958402;22;20027;-47
2021/05/01 05:09:00;;;;;;;6.80;3.30;;;4.50;99.90;;;;;;12960076;22;20515;-47
2021/05/01 05:14:01;;;;;;;9.02;3.58;;;4.60;99.90;;;;;;12960978;22;20023;-47
2021/05/01 05:19:01;;;;;;;9.98;4.22;;;4.80;99.90;;;;;;12963824;22;20012;-47
2021/05/01 05:24:05;;;;;;;10.10;4.25;;;5.00;99.90;;;;;;12967004;22;20019;-47
2021/05/01 05:29:11;;;;;;;8.07;2.90;;;5.20;99.90;;;;;;12977619;22;20493;-47
2021/05/01 05:34:14;;;;;;;8.10;3.17;;;5.30;99.90;;;;;;12970628;22;20314;-47
2021/05/01 05:39:17;;;;;;;6.65;3.08;;;5.50;99.90;;;;;;12971031;22;20487;-47
2021/05/01 05:44:21;;;;;;;7.05;2.67;;;5.60;99.90;;;;;;12972155;22;20007;-47
2021/05/01 05:49:23;;;;;;;8.00;3.60;;;5.80;99.90;;;;;;12972035;22;20007;-47
2021/05/01 05:54:23;;;;;;;9.10;3.03;;;6.10;99.90;;;;;;12968485;22;20022;-47
2021/05/01 05:59:24;;;;;;;4.57;2.22;;;6.40;99.90;;;;;;12968407;22;20016;-47
2021/05/01 06:04:31;;;;;;;7.35;2.00;;;6.70;99.90;;;;;;12966863;22;20034;-47
2021/05/01 06:09:32;;;;;;;5.30;1.83;;;6.80;99.90;;;;;;12967812;22;20511;-47
2021/05/01 06:14:34;;;;;;;6.05;2.08;;;7.00;99.90;;;;;;12955463;22;20048;-47
2021/05/01 06:19:37;;;;;;;2.85;1.17;;;7.00;99.90;;;;;;12963190;22;20045;-47
2021/05/01 06:24:42;;;;;;;4.82;1.85;;;7.30;99.90;;;;;;12963990;22;20018;-47
2021/05/01 06:29:44;;;;;;;6.18;2.25;;;7.40;99.90;;;;;;12975941;22;20124;-47
2021/05/01 06:34:56;;;;;;;5.53;1.77;;;7.40;99.90;;;;;;12963004;22;20027;-47
2021/05/01 06:40:05;;;;;;;3.33;1.63;;;7.50;99.90;;;;;;12961379;22;20347;-47
2021/05/01 06:45:12;;;;;;;3.85;2.15;;;7.70;99.90;;;;;;12959250;22;20250;-47
2021/05/01 06:50:13;;;;;;;2.97;1.73;;;7.90;99.90;;;;;;12959663;22;20038;-47
2021/05/01 06:55:17;;;;;;;9.75;2.10;;;8.20;99.90;;;;;;12961797;22;20549;-47
2021/05/01 07:00:19;;;;;;;4.47;1.38;;;8.50;99.90;;;;;;12963330;22;20022;-47
2021/05/01 07:05:22;;;;;;;6.78;1.88;;;8.60;99.90;;;;;;12964103;22;20032;-47
2021/05/01 07:10:23;;;;;;;3.78;1.75;;;8.70;99.90;;;;;;12963637;22;20011;-47
2021/05/01 07:15:24;;;;;;;4.32;1.73;;;8.80;99.90;;;;;;12960279;22;20008;-47
2021/05/01 07:20:25;;;;;;;5.10;1.88;;;8.90;99.90;;;;;;12963382;22;20404;-47
2021/05/01 07:25:26;;;;;;;4.15;1.50;;;9.00;99.90;;;;;;12965567;22;20414;-47
2021/05/01 07:30:28;;;;;;;3.70;1.60;;;9.10;99.90;;;;;;12969146;22;20019;-47
2021/05/01 07:35:31;;;;;;;6.07;1.70;;;9.20;99.90;;;;;;12918920;22;20442;-47
2021/05/01 07:40:32;;;;;;;6.57;1.75;;;9.40;99.90;;;;;;12959105;22;20402;-47
2021/05/01 07:45:36;;;;;;;5.85;1.77;;;9.60;99.90;;;;;;12933971;22;20016;-47
2021/05/01 07:50:37;;;;;;;5.18;1.65;;;9.70;99.90;;;;;;12959540;22;20679;-47
2021/05/01 07:55:38;;;;;;;3.10;1.58;;;9.90;99.90;;;;;;12951851;22;20015;-47
2021/05/01 08:00:40;;;;;;;4.20;1.30;;;10.10;99.90;;;;;;12956873;22;20157;-47
2021/05/01 08:05:41;;;;;;;2.83;1.20;;;10.20;99.90;;;;;;12957532;22;20039;-47
2021/05/01 08:10:43;;;;;;;2.88;0.93;;;10.30;99.90;;;;;;12957708;22;20463;-47
2021/05/01 08:15:44;;;;;;;2.47;1.00;;;10.30;99.90;;;;;;12956788;22;20114;-47
2021/05/01 08:20:44;;;;;;;7.05;1.33;;;10.10;99.90;;;;;;12963802;22;20445;-47
2021/05/01 08:25:45;;;;;;;4.10;1.75;;;10.00;99.90;;;;;;12963888;22;20427;-47
2021/05/01 08:30:46;;;;;;;2.95;1.35;;;10.10;99.90;;;;;;12962769;22;20475;-47
2021/05/01 08:35:46;;;;;;;4.90;1.67;;;10.20;99.90;;;;;;12962945;22;20038;-47
2021/05/01 08:40:48;;;;;;;5.28;1.30;;;10.10;99.90;;;;;;12961568;22;20022;-47
2021/05/01 08:45:49;;;;;;;3.75;0.90;;;10.40;99.90;;;;;;12961122;22;20355;-47
2021/05/01 08:51:03;;;;;;;2.70;0.85;;;10.70;99.90;;;;;;12960657;22;20077;-47
2021/05/01 08:56:04;;;;;;;13.27;2.10;;;11.20;99.90;;;;;;12963008;22;20007;-47
2021/05/01 09:01:08;;;;;;;3.72;1.50;;;11.40;99.90;;;;;;12963626;22;20011;-47
2021/05/01 09:06:10;;;;;;;1.88;0.82;;;11.60;99.90;;;;;;12964410;22;20072;-47
2021/05/01 09:11:10;;;;;;;2.97;0.90;;;11.80;99.90;;;;;;12964911;22;20118;-47
2021/05/01 09:16:11;;;;;;;2.22;1.08;;;12.10;99.90;;;;;;12962798;22;20098;-47
2021/05/01 09:21:15;;;;;;;2.75;0.85;;;12.30;99.90;;;;;;12960737;22;20356;-47
2021/05/01 09:26:21;;;;;;;4.13;1.00;;;11.80;99.90;;;;;;12963621;22;20069;-47
2021/05/01 09:31:23;;;;;;;1.90;1.30;;;11.80;99.90;;;;;;12958470;22;20523;-47
2021/05/01 09:36:25;;;;;;;2.15;1.00;;;12.60;99.90;;;;;;12963818;22;20078;-47
2021/05/01 09:41:28;;;;;;;4.10;1.33;;;12.90;99.90;;;;;;12962665;22;20012;-47
2021/05/01 09:46:38;;;;;;;1.95;0.80;;;12.80;99.90;;;;;;12958596;22;20022;-47
2021/05/01 09:51:53;;;;;;;3.20;1.45;;;13.00;99.90;;;;;;12960055;22;20020;-47
2021/05/01 09:56:56;;;;;;;5.75;1.27;;;13.10;99.90;;;;;;12963074;22;20003;-48
2021/05/01 10:01:58;;;;;;;2.28;1.20;;;12.70;99.90;;;;;;12960525;22;20019;-48
2021/05/01 10:07:01;;;;;;;3.80;1.00;;;13.20;99.90;;;;;;12962090;22;20024;-48
2021/05/01 10:12:07;;;;;;;1.50;0.73;;;13.80;99.90;;;;;;12939349;22;20023;-48
2021/05/01 10:17:10;;;;;;;1.75;0.73;;;14.20;99.90;;;;;;12955467;22;20015;-48
2021/05/01 10:22:30;;;;;;;4.25;0.90;;;14.40;99.90;;;;;;12955739;22;20095;-48
2021/05/01 10:27:59;;;;;;;1.80;0.80;;;14.60;99.90;;;;;;12950527;22;20011;-48
2021/05/01 10:33:14;;;;;;;2.45;1.23;;;14.10;99.90;;;;;;12954940;22;20015;-48
2021/05/01 10:38:21;;;;;;;2.17;0.90;;;14.00;99.90;;;;;;12957308;22;20008;-48
2021/05/01 10:43:23;;;;;;;2.50;1.00;;;14.00;99.90;;;;;;12956444;22;20008;-48
2021/05/01 10:48:25;;;;;;;2.60;1.10;;;13.90;99.90;;;;;;12947844;22;20448;-48
2021/05/01 10:53:26;;;;;;;3.30;0.70;;;14.40;99.90;;;;;;12957419;22;20023;-48
2021/05/01 10:58:45;;;;;;;2.60;1.10;;;14.50;99.90;;;;;;12954869;22;20034;-48
2021/05/01 11:03:47;;;;;;;2.47;1.00;;;14.30;99.90;;;;;;12954382;22;20115;-48
2021/05/01 11:09:00;;;;;;;1.15;0.63;;;15.20;98.20;;;;;;12958003;22;20016;-48
2021/05/01 11:14:19;;;;;;;3.80;1.55;;;16.00;99.70;;;;;;12956134;22;20015;-48
2021/05/01 11:19:23;;;;;;;1.90;0.80;;;16.30;95.60;;;;;;12956461;22;20003;-48
2021/05/01 11:24:24;;;;;;;1.38;0.55;;;16.10;97.60;;;;;;12954955;22;20032;-48
2021/05/01 11:29:25;;;;;;;3.13;1.08;;;16.10;97.00;;;;;;12957572;22;20347;-48
2021/05/01 11:34:31;;;;;;;4.30;1.42;;;16.20;99.90;;;;;;12953744;22;20007;-48
2021/05/01 11:39:38;;;;;;;2.15;1.15;;;16.40;98.50;;;;;;12948965;22;20020;-48
2021/05/01 11:44:45;;;;;;;3.88;0.85;;;16.80;97.40;;;;;;12958824;22;20061;-48
2021/05/01 11:49:48;;;;;;;6.40;0.75;;;16.30;97.10;;;;;;12949934;22;20039;-48
2021/05/01 11:54:48;;;;;;;1.70;0.70;;;16.00;97.70;;;;;;12949302;22;20012;-48
2021/05/01 11:59:52;;;;;;;1.80;0.77;;;16.50;92.50;;;;;;12947000;22;20019;-48
2021/05/01 12:05:05;;;;;;;1.23;0.55;;;16.50;92.80;;;;;;12955588;22;20024;-48
2021/05/01 12:10:15;;;;;;;3.15;1.05;;;17.20;93.80;;;;;;12948159;22;20034;-48
2021/05/01 12:15:16;;;;;;;2.03;1.00;;;18.10;93.50;;;;;;12945011;22;20035;-48
2021/05/01 12:20:18;;;;;;;1.48;0.82;;;17.60;94.40;;;;;;12950245;22;20022;-48
2021/05/01 12:25:36;;;;;;;2.90;0.88;;;18.20;92.10;;;;;;12955017;22;20046;-48
2021/05/01 12:30:40;;;;;;;1.45;0.68;;;18.40;88.30;;;;;;12957781;22;20015;-48
2021/05/01 12:35:43;;;;;;;1.52;0.70;;;19.10;85.50;;;;;;12951915;22;20118;-48
2021/05/01 12:40:44;;;;;;;2.22;0.68;;;18.80;82.30;;;;;;12954735;22;20283;-48
2021/05/01 12:45:45;;;;;;;1.77;0.60;;;19.10;84.30;;;;;;12957205;22;20008;-48
2021/05/01 12:51:35;;;;;;;2.50;0.73;;;20.10;71.10;;;;;;12959838;22;20106;-48
2021/05/01 12:56:55;;;;;;;1.27;0.45;;;18.80;73.80;;;;;;12932943;22;20474;-48
2021/05/01 13:01:56;;;;;;;0.93;0.47;;;17.90;84.10;;;;;;12959606;22;20019;-48
2021/05/01 13:06:57;;;;;;;3.00;0.50;;;19.00;80.80;;;;;;12958631;22;20361;-48
2021/05/01 13:12:07;;;;;;;1.15;0.50;;;19.40;73.20;;;;;;12959005;22;20000;-48
2021/05/01 13:17:08;;;;;;;1.58;0.73;;;19.10;69.80;;;;;;12958034;22;20043;-48
2021/05/01 13:22:09;;;;;;;0.70;0.30;;;19.20;69.80;;;;;;12961676;22;20016;-48
2021/05/01 13:27:11;;;;;;;1.30;0.70;;;19.40;63.30;;;;;;12961191;22;20515;-48
2021/05/01 13:32:14;;;;;;;2.92;0.77;;;19.20;69.10;;;;;;12959936;22;20088;-48
2021/05/01 13:37:16;;;;;;;2.13;0.70;;;18.70;78.10;;;;;;12960391;22;20515;-48
2021/05/01 13:42:19;;;;;;;1.65;0.60;;;18.80;76.50;;;;;;12958820;22;20344;-48
2021/05/01 13:47:37;;;;;;;1.20;0.70;;;18.70;78.30;;;;;;12959475;22;20012;-48
2021/05/01 13:52:46;;;;;;;2.17;0.93;;;18.80;77.90;;;;;;12959916;22;20019;-48
2021/05/01 13:58:11;;;;;;;1.90;0.93;;;18.20;79.80;;;;;;12958723;22;20611;-48
2021/05/01 14:03:16;;;;;;;2.15;1.15;;;17.30;85.00;;;;;;12959365;22;20015;-48
2021/05/01 14:08:17;;;;;;;1.70;0.90;;;17.00;86.50;;;;;;12961803;22;20023;-48
2021/05/01 14:13:22;;;;;;;2.65;0.95;;;16.60;89.70;;;;;;12959299;22;20011;-48
2021/05/01 14:18:25;;;;;;;1.77;0.90;;;15.40;90.20;;;;;;12958147;22;20087;-48
2021/05/01 14:23:27;;;;;;;2.45;1.02;;;14.70;95.40;;;;;;12961531;22;20050;-48
2021/05/01 14:28:34;;;;;;;2.20;1.10;;;14.60;97.10;;;;;;12960152;22;20015;-48
2021/05/01 14:33:37;;;;;;;2.35;0.95;;;14.10;99.90;;;;;;12957813;22;20093;-48
2021/05/01 14:38:40;;;;;;;2.85;1.23;;;13.80;99.90;;;;;;12959382;22;20008;-48
2021/05/01 14:43:41;;;;;;;2.70;1.45;;;14.00;99.90;;;;;;12962357;22;20012;-48
2021/05/01 14:49:01;;;;;;;2.03;0.85;;;14.00;99.90;;;;;;12959305;22;20019;-48
2021/05/01 14:54:26;;;;;;;3.05;0.73;;;14.10;99.90;;;;;;12959764;22;20549;-48
2021/05/01 14:59:57;;;;;;;2.45;1.15;;;14.10;99.90;;;;;;12962502;22;20046;-48
2021/05/01 15:05:10;;;;;;;2.00;0.73;;;14.10;99.90;;;;;;12960883;22;20016;-48
2021/05/01 15:10:15;;;;;;;2.63;1.08;;;14.10;99.90;;;;;;12957223;22;20125;-48
2021/05/01 15:15:16;;;;;;;3.35;1.08;;;13.80;99.90;;;;;;12950718;22;20400;-48
2021/05/01 15:20:38;;;;;;;4.30;1.05;;;13.70;99.90;;;;;;12955370;22;20091;-48
2021/05/01 15:25:40;;;;;;;1.92;1.00;;;13.80;99.90;;;;;;12953043;22;20446;-48
2021/05/01 15:30:42;;;;;;;2.08;0.60;;;13.80;99.90;;;;;;12955639;22;20070;-49
2021/05/01 15:35:44;;;;;;;3.08;0.73;;;13.60;99.90;;;;;;12951994;22;20012;-48
2021/05/01 15:40:47;;;;;;;1.50;0.73;;;13.40;99.90;;;;;;12952544;22;20081;-48
2021/05/01 15:45:49;;;;;;;2.22;0.80;;;13.10;99.90;;;;;;12950402;22;20046;-49
2021/05/01 15:50:51;;;;;;;2.00;0.85;;;12.80;99.90;;;;;;12950876;22;20023;-48
2021/05/01 15:55:52;;;;;;;1.98;0.73;;;12.60;99.90;;;;;;12952048;22;20093;-48
2021/05/01 16:00:53;;;;;;;3.60;1.23;;;12.70;99.90;;;;;;12950476;22;20011;-48
2021/05/01 16:05:53;;;;;;;2.25;0.77;;;12.50;99.90;;;;;;12949007;22;20307;-48
2021/05/01 16:10:54;;;;;;;2.70;0.90;;;12.40;99.90;;;;;;12946566;22;20020;-48
2021/05/01 16:15:55;;;;;;;2.10;0.75;;;12.40;99.90;;;;;;12950911;22;20012;-48
2021/05/01 16:20:56;;;;;;;9.30;1.17;;;12.30;99.90;;;;;;12950651;22;20455;-48
2021/05/01 16:25:58;;;;;;;1.70;0.88;;;12.30;99.90;;;;;;12953326;22;20031;-48
2021/05/01 16:30:59;;;;;;;1.27;0.60;;;12.30;99.90;;;;;;12948244;22;20035;-48
2021/05/01 16:36:00;;;;;;;1.40;0.50;;;12.20;99.90;;;;;;12949818;22;20106;-48
2021/05/01 16:41:00;;;;;;;1.52;0.68;;;12.10;99.90;;;;;;12954396;22;20121;-48
2021/05/01 16:46:01;;;;;;;1.58;0.80;;;12.00;99.90;;;;;;12953203;22;20511;-48
2021/05/01 16:51:02;;;;;;;2.20;0.90;;;11.80;99.90;;;;;;12954723;22;20467;-48
2021/05/01 16:56:03;;;;;;;2.20;1.00;;;11.70;99.90;;;;;;12949590;22;20010;-48
2021/05/01 17:01:07;;;;;;;3.00;1.58;;;11.50;99.90;;;;;;12954747;22;20016;-48
2021/05/01 17:06:07;;;;;;;2.75;0.73;;;11.30;99.90;;;;;;12959021;22;20351;-48
2021/05/01 17:11:08;;;;;;;1.92;0.82;;;11.30;99.90;;;;;;12953094;22;20019;-48
2021/05/01 17:16:09;;;;;;;2.55;0.95;;;11.30;99.90;;;;;;12949236;22;20004;-48
2021/05/01 17:21:10;;;;;;;2.20;0.93;;;11.30;99.90;;;;;;12944878;22;20015;-48
2021/05/01 17:26:12;;;;;;;3.63;1.30;;;11.30;99.90;;;;;;12952217;22;20004;-48
2021/05/01 17:31:12;;;;;;;2.58;1.10;;;11.30;99.90;;;;;;12951599;22;20616;-48
2021/05/01 17:36:13;;;;;;;2.42;1.13;;;11.40;99.90;;;;;;12953347;22;20018;-48
2021/05/01 17:41:14;;;;;;;2.30;1.00;;;11.30;99.90;;;;;;12952540;22;20021;-48
2021/05/01 17:46:15;;;;;;;3.13;1.45;;;11.10;99.90;;;;;;12948492;22;20008;-48
2021/05/01 17:51:16;;;;;;;2.97;1.20;;;11.10;99.90;;;;;;12953332;22;20036;-48
2021/05/01 17:56:17;;;;;;;3.72;1.48;;;10.90;99.90;;;;;;12954699;22;20407;-48
2021/05/01 18:01:18;;;;;;;2.40;1.50;;;10.80;99.90;;;;;;12955761;22;20479;-48
2021/05/01 18:06:19;;;;;;;2.63;1.15;;;10.80;99.90;;;;;;12949274;22;20567;-48
2021/05/01 18:11:20;;;;;;;4.47;1.80;;;10.60;99.90;;;;;;12951422;22;20016;-48
2021/05/01 18:16:20;;;;;;;3.63;1.80;;;10.50;99.90;;;;;;12954241;22;20076;-48
2021/05/01 18:21:21;;;;;;;9.63;2.53;;;10.40;99.90;;;;;;12949671;22;20008;-48
2021/05/01 18:26:25;;;;;;;4.30;2.58;;;10.40;99.90;;;;;;12951768;22;20004;-48
2021/05/01 18:31:26;;;;;;;2.65;1.52;;;10.40;99.90;;;;;;12926243;22;20011;-48
2021/05/01 18:36:27;;;;;;;7.68;1.92;;;10.20;99.90;;;;;;12952410;22;20459;-48
2021/05/01 18:41:28;;;;;;;5.65;1.75;;;10.00;99.90;;;;;;12950500;22;20051;-48
2021/05/01 18:46:29;;;;;;;4.00;1.92;;;9.80;99.90;;;;;;12948170;22;20540;-48
2021/05/01 18:51:30;;;;;;;4.22;1.90;;;9.60;99.90;;;;;;12917332;22;20033;-48
2021/05/01 18:56:30;;;;;;;6.63;1.48;;;9.50;99.90;;;;;;12948863;22;20656;-48
2021/05/01 19:01:31;;;;;;;4.70;2.15;;;9.40;99.90;;;;;;12946803;22;20027;-48
2021/05/01 19:06:33;;;;;;;6.03;2.55;;;9.20;99.90;;;;;;12939214;22;20110;-48
2021/05/01 19:11:38;;;;;;;4.22;2.25;;;9.10;99.90;;;;;;12939351;22;20020;-48
2021/05/01 19:16:38;;;;;;;4.28;1.90;;;9.00;99.90;;;;;;12948417;22;20337;-48
2021/05/01 19:21:42;;;;;;;4.32;1.88;;;9.00;99.90;;;;;;12946886;22;20020;-48
2021/05/01 19:26:44;;;;;;;5.28;2.33;;;8.90;99.90;;;;;;12944952;22;20023;-48
2021/05/01 19:31:46;;;;;;;6.03;2.13;;;8.90;99.90;;;;;;12945568;22;20555;-48
2021/05/01 19:36:49;;;;;;;7.30;1.88;;;8.80;99.90;;;;;;12945441;22;20482;-48
2021/05/01 19:41:50;;;;;;;6.07;2.53;;;8.70;99.90;;;;;;12950761;22;20179;-48
2021/05/01 19:46:51;;;;;;;4.35;1.60;;;8.60;99.90;;;;;;12946709;22;20344;-48
2021/05/01 19:51:53;;;;;;;4.05;2.15;;;8.50;99.90;;;;;;12946884;22;20012;-48
2021/05/01 19:56:53;;;;;;;4.93;1.83;;;8.40;99.90;;;;;;12949856;22;20095;-48
2021/05/01 20:01:54;;;;;;;6.15;2.60;;;8.40;99.90;;;;;;12946226;22;20098;-48
2021/05/01 20:06:55;;;;;;;6.03;1.83;;;8.30;99.90;;;;;;12942194;22;20020;-48
2021/05/01 20:11:55;;;;;;;4.53;1.73;;;8.20;99.90;;;;;;12948006;22;20186;-48
2021/05/01 20:16:56;;;;;;;7.38;2.65;;;8.10;99.90;;;;;;12955382;22;20011;-48
2021/05/01 20:21:57;;;;;;;6.68;3.20;;;8.00;99.90;;;;;;12961459;22;20042;-48
2021/05/01 20:26:58;;;;;;;5.00;2.05;;;8.00;99.90;;;;;;12965916;22;20018;-48
2021/05/01 20:31:58;;;;;;;9.77;3.10;;;7.90;99.90;;;;;;12968943;22;20065;-48
2021/05/01 20:36:59;;;;;;;5.10;1.95;;;7.90;99.90;;;;;;12966308;22;20069;-48
2021/05/01 20:42:00;;;;;;;5.97;2.80;;;7.90;99.90;;;;;;12964353;22;20026;-48
2021/05/01 20:47:01;;;;;;;5.05;2.30;;;8.00;99.90;;;;;;12964502;22;20082;-48
2021/05/01 20:52:02;;;;;;;5.03;2.08;;;7.90;99.90;;;;;;12962660;22;20107;-48
2021/05/01 20:57:02;;;;;;;7.93;2.42;;;7.90;99.90;;;;;;12963686;22;20091;-48
2021/05/01 21:02:03;;;;;;;8.23;2.60;;;7.90;99.90;;;;;;12965850;22;20439;-48
2021/05/01 21:07:04;;;;;;;7.35;2.72;;;7.80;99.90;;;;;;12966212;22;20178;-48
2021/05/01 21:12:05;;;;;;;7.38;2.13;;;7.80;99.90;;;;;;12962197;22;20106;-48
2021/05/01 21:17:06;;;;;;;6.05;2.47;;;7.80;99.90;;;;;;12964834;22;20292;-48
2021/05/01 21:22:06;;;;;;;5.20;2.25;;;7.80;99.90;;;;;;12965558;22;20016;-48
2021/05/01 21:27:07;;;;;;;5.13;2.03;;;7.70;99.90;;;;;;12964333;22;20095;-48
2021/05/01 21:32:07;;;;;;;4.13;1.67;;;7.70;99.90;;;;;;12965782;22;20399;-48
2021/05/01 21:37:08;;;;;;;3.17;1.70;;;7.70;99.90;;;;;;12962725;22;20365;-48
2021/05/01 21:42:09;;;;;;;4.00;1.50;;;7.60;99.90;;;;;;12959463;22;20012;-48
2021/05/01 21:47:10;;;;;;;4.72;1.35;;;7.60;99.90;;;;;;12961157;22;20408;-48
2021/05/01 21:52:11;;;;;;;5.43;1.63;;;7.60;99.90;;;;;;12960591;22;20015;-48
2021/05/01 21:57:11;;;;;;;5.80;1.63;;;7.50;99.90;;;;;;12962796;22;20008;-48
2021/05/01 22:02:12;;;;;;;4.72;1.45;;;7.50;99.90;;;;;;12943497;22;20016;-48
2021/05/01 22:07:14;;;;;;;3.22;1.63;;;7.40;99.90;;;;;;12958163;22;20109;-48
2021/05/01 22:12:15;;;;;;;3.25;1.88;;;7.40;99.90;;;;;;12959239;22;20024;-48
2021/05/01 22:17:24;;;;;;;5.50;1.20;;;7.40;99.90;;;;;;12958980;22;20355;-48
2021/05/01 22:22:33;;;;;;;3.15;1.40;;;7.30;99.90;;;;;;12956153;22;20081;-48
2021/05/01 22:27:33;;;;;;;;;;;7.30;99.90;;;;;;12960583;22;20011;-48
2021/05/01 22:32:34;;;;;;;3.08;1.25;;;7.30;99.90;;;;;;12958982;22;19907;-48
2021/05/01 22:37:34;;;;;;;4.85;1.83;;;7.20;99.90;;;;;;12957780;22;20015;-48
2021/05/01 22:42:35;;;;;;;4.15;2.08;;;7.20;99.90;;;;;;12961247;22;20031;-48
2021/05/01 22:47:37;;;;;;;6.10;2.38;;;7.20;99.90;;;;;;12959304;22;20030;-48
2021/05/01 22:52:38;;;;;;;5.07;1.52;;;7.30;99.90;;;;;;12956793;22;20012;-48
2021/05/01 22:57:40;;;;;;;4.68;1.92;;;7.30;99.90;;;;;;12960297;22;20015;-48
2021/05/01 23:02:41;;;;;;;3.55;1.70;;;7.20;99.90;;;;;;12959381;22;20019;-48
2021/05/01 23:07:43;;;;;;;4.80;2.47;;;7.10;99.90;;;;;;12961818;22;20403;-48
2021/05/01 23:12:44;;;;;;;7.45;1.90;;;7.10;99.90;;;;;;12961791;22;20510;-48
2021/05/01 23:17:45;;;;;;;5.82;1.70;;;7.10;99.90;;;;;;12960038;22;20019;-48
2021/05/01 23:22:49;;;;;;;5.47;2.10;;;7.00;99.90;;;;;;12961897;22;20123;-48
2021/05/01 23:27:52;;;;;;;5.90;2.22;;;6.90;99.90;;;;;;12962013;22;20012;-48
2021/05/01 23:32:54;;;;;;;3.20;1.45;;;6.90;99.90;;;;;;12962150;22;20011;-48
2021/05/01 23:37:56;;;;;;;2.72;1.40;;;6.80;99.90;;;;;;12962585;22;20016;-48
2021/05/01 23:43:00;;;;;;;4.72;1.58;;;6.70;99.90;;;;;;12960496;22;20015;-48
2021/05/01 23:48:07;;;;;;;2.67;1.05;;;6.70;99.90;;;;;;12964069;22;20365;-48
2021/05/01 23:53:08;;;;;;;5.60;1.73;;;6.70;99.90;;;;;;12968544;22;20130;-48
2021/05/01 23:58:09;;;;;;;3.85;1.15;;;6.60;99.90;;;;;;12965595;22;20031;-48
